Joseph City, Arizona
Current Conditions -  °F | °C
As of 10:56 PM on Saturday 25 Oct 2014 (Local Time) from KINW Reporting Station
Clear Clear  
Wind Chill: 57°   Ceiling: Unl
Heat Index: 57°   Visibility: 10mi
Dew Point: 46°   Wind: 9mph
Humidity: 67%   Direction: 210°SSW
Pressure: 30.16"   Gusts: NA
Location:  34.96°N, 110.34°W
Report Text: KINW 260556Z AUTO 21008KT 10SM CLR 14/08 A3016 RMK AO2 SLP155 T01390078 10256 20139 58003
Loading
Personal Weather Stations






























Interactive Weather Map
Tropical Storm Tracking
New forecast layout! Learn more

10-Day Weather Forecast

Advertisements
Track Severe Weather on mobile